sensor_id;sensor_type;location;lat;lon;timestamp;temperature;humidity
17918;DHT22;9084;50.956;3.106;2024-01-06T00:00:21;6.80;99.90
17918;DHT22;9084;50.956;3.106;2024-01-06T00:02:48;6.80;99.90
17918;DHT22;9084;50.956;3.106;2024-01-06T00:05:14;6.80;99.90
17918;DHT22;9084;50.956;3.106;2024-01-06T00:07:42;6.80;99.90
17918;DHT22;9084;50.956;3.106;2024-01-06T00:10:08;6.80;99.90
17918;DHT22;9084;50.956;3.106;2024-01-06T00:12:36;6.80;99.90
17918;DHT22;9084;50.956;3.106;2024-01-06T00:15:02;6.80;99.90
17918;DHT22;9084;50.956;3.106;2024-01-06T00:17:28;6.80;99.90
17918;DHT22;9084;50.956;3.106;2024-01-06T00:19:54;6.80;99.90
17918;DHT22;9084;50.956;3.106;2024-01-06T00:22:22;6.80;99.90
17918;DHT22;9084;50.956;3.106;2024-01-06T00:24:48;6.70;99.90
17918;DHT22;9084;50.956;3.106;2024-01-06T00:27:15;6.80;99.90
17918;DHT22;9084;50.956;3.106;2024-01-06T00:29:44;6.80;99.90
17918;DHT22;9084;50.956;3.106;2024-01-06T00:32:09;6.80;99.90
17918;DHT22;9084;50.956;3.106;2024-01-06T00:34:35;6.80;99.90
17918;DHT22;9084;50.956;3.106;2024-01-06T00:37:03;6.80;99.90
17918;DHT22;9084;50.956;3.106;2024-01-06T00:39:31;6.80;99.90
17918;DHT22;9084;50.956;3.106;2024-01-06T00:41:56;6.80;99.90
17918;DHT22;9084;50.956;3.106;2024-01-06T00:44:22;6.80;99.90
17918;DHT22;9084;50.956;3.106;2024-01-06T00:46:50;6.80;99.90
17918;DHT22;9084;50.956;3.106;2024-01-06T00:49:15;6.80;99.90
17918;DHT22;9084;50.956;3.106;2024-01-06T00:51:44;6.80;99.90
17918;DHT22;9084;50.956;3.106;2024-01-06T00:54:09;6.80;99.90
17918;DHT22;9084;50.956;3.106;2024-01-06T00:56:35;6.70;99.90
17918;DHT22;9084;50.956;3.106;2024-01-06T00:59:00;6.70;99.90
17918;DHT22;9084;50.956;3.106;2024-01-06T01:01:31;6.70;99.90
17918;DHT22;9084;50.956;3.106;2024-01-06T01:03:57;6.70;99.90
17918;DHT22;9084;50.956;3.106;2024-01-06T01:06:24;6.60;99.90
17918;DHT22;9084;50.956;3.106;2024-01-06T01:08:50;6.60;99.90
17918;DHT22;9084;50.956;3.106;2024-01-06T01:11:18;6.60;99.90
17918;DHT22;9084;50.956;3.106;2024-01-06T01:13:46;6.60;99.90
17918;DHT22;9084;50.956;3.106;2024-01-06T01:16:14;6.60;99.90
17918;DHT22;9084;50.956;3.106;2024-01-06T01:18:39;6.60;99.90
17918;DHT22;9084;50.956;3.106;2024-01-06T01:21:05;6.60;99.90
17918;DHT22;9084;50.956;3.106;2024-01-06T01:23:31;6.60;99.90
17918;DHT22;9084;50.956;3.106;2024-01-06T01:25:56;6.60;99.90
17918;DHT22;9084;50.956;3.106;2024-01-06T01:28:22;6.70;99.90
17918;DHT22;9084;50.956;3.106;2024-01-06T01:30:48;6.70;99.90
17918;DHT22;9084;50.956;3.106;2024-01-06T01:33:13;6.70;99.90
17918;DHT22;9084;50.956;3.106;2024-01-06T01:35:39;6.70;99.90
17918;DHT22;9084;50.956;3.106;2024-01-06T01:38:04;6.70;99.90
17918;DHT22;9084;50.956;3.106;2024-01-06T01:40:30;6.70;99.90
17918;DHT22;9084;50.956;3.106;2024-01-06T01:42:56;6.70;99.90
17918;DHT22;9084;50.956;3.106;2024-01-06T01:45:23;6.70;99.90
17918;DHT22;9084;50.956;3.106;2024-01-06T01:47:50;6.60;99.90
17918;DHT22;9084;50.956;3.106;2024-01-06T01:50:16;6.70;99.90
17918;DHT22;9084;50.956;3.106;2024-01-06T01:52:42;6.60;99.90
17918;DHT22;9084;50.956;3.106;2024-01-06T01:55:10;6.70;99.90
17918;DHT22;9084;50.956;3.106;2024-01-06T01:57:38;6.60;99.90
17918;DHT22;9084;50.956;3.106;2024-01-06T02:00:04;6.60;99.90
17918;DHT22;9084;50.956;3.106;2024-01-06T02:02:30;6.60;99.90
17918;DHT22;9084;50.956;3.106;2024-01-06T02:04:57;6.60;99.90
17918;DHT22;9084;50.956;3.106;2024-01-06T02:07:24;6.70;99.90
17918;DHT22;9084;50.956;3.106;2024-01-06T02:09:52;6.70;99.90
17918;DHT22;9084;50.956;3.106;2024-01-06T02:12:17;6.80;99.90
17918;DHT22;9084;50.956;3.106;2024-01-06T02:14:45;6.80;99.90
17918;DHT22;9084;50.956;3.106;2024-01-06T02:17:11;6.80;99.90
17918;DHT22;9084;50.956;3.106;2024-01-06T02:19:37;6.70;99.90
17918;DHT22;9084;50.956;3.106;2024-01-06T02:22:05;6.70;99.90
17918;DHT22;9084;50.956;3.106;2024-01-06T02:24:31;6.70;99.90
17918;DHT22;9084;50.956;3.106;2024-01-06T02:26:59;6.70;99.90
17918;DHT22;9084;50.956;3.106;2024-01-06T02:29:25;6.80;99.90
17918;DHT22;9084;50.956;3.106;2024-01-06T02:31:50;6.80;99.90
17918;DHT22;9084;50.956;3.106;2024-01-06T02:34:16;6.80;99.90
17918;DHT22;9084;50.956;3.106;2024-01-06T02:36:43;6.80;99.90
17918;DHT22;9084;50.956;3.106;2024-01-06T02:39:12;6.80;99.90
17918;DHT22;9084;50.956;3.106;2024-01-06T02:41:37;6.80;99.90
17918;DHT22;9084;50.956;3.106;2024-01-06T02:44:03;6.80;99.90
17918;DHT22;9084;50.956;3.106;2024-01-06T02:46:32;6.80;99.90
17918;DHT22;9084;50.956;3.106;2024-01-06T02:48:57;6.80;99.90
17918;DHT22;9084;50.956;3.106;2024-01-06T02:51:25;6.80;99.90
17918;DHT22;9084;50.956;3.106;2024-01-06T02:53:51;6.80;99.90
17918;DHT22;9084;50.956;3.106;2024-01-06T02:56:18;6.80;99.90
17918;DHT22;9084;50.956;3.106;2024-01-06T02:58:44;6.80;99.90
17918;DHT22;9084;50.956;3.106;2024-01-06T03:01:13;6.80;99.90
17918;DHT22;9084;50.956;3.106;2024-01-06T03:03:39;6.80;99.90
17918;DHT22;9084;50.956;3.106;2024-01-06T03:06:05;6.70;99.90
17918;DHT22;9084;50.956;3.106;2024-01-06T03:08:32;6.70;99.90
17918;DHT22;9084;50.956;3.106;2024-01-06T03:11:02;6.70;99.90
17918;DHT22;9084;50.956;3.106;2024-01-06T03:13:33;6.80;99.90
17918;DHT22;9084;50.956;3.106;2024-01-06T03:16:03;6.80;99.90
17918;DHT22;9084;50.956;3.106;2024-01-06T03:18:30;6.80;99.90
17918;DHT22;9084;50.956;3.106;2024-01-06T03:20:56;6.80;99.90
17918;DHT22;9084;50.956;3.106;2024-01-06T03:23:24;6.80;99.90
17918;DHT22;9084;50.956;3.106;2024-01-06T03:25:52;6.80;99.90
17918;DHT22;9084;50.956;3.106;2024-01-06T03:28:17;6.80;99.90
17918;DHT22;9084;50.956;3.106;2024-01-06T03:30:43;6.70;99.90
17918;DHT22;9084;50.956;3.106;2024-01-06T03:33:08;6.70;99.90
17918;DHT22;9084;50.956;3.106;2024-01-06T03:35:34;6.70;99.90
17918;DHT22;9084;50.956;3.106;2024-01-06T03:38:00;6.70;99.90
17918;DHT22;9084;50.956;3.106;2024-01-06T03:40:25;6.70;99.90
17918;DHT22;9084;50.956;3.106;2024-01-06T03:42:51;6.70;99.90
17918;DHT22;9084;50.956;3.106;2024-01-06T03:45:16;6.70;99.90
17918;DHT22;9084;50.956;3.106;2024-01-06T03:47:45;6.70;99.90
17918;DHT22;9084;50.956;3.106;2024-01-06T03:50:10;6.70;99.90
17918;DHT22;9084;50.956;3.106;2024-01-06T03:52:36;6.80;99.90
17918;DHT22;9084;50.956;3.106;2024-01-06T03:55:07;6.70;99.90
17918;DHT22;9084;50.956;3.106;2024-01-06T03:57:33;6.70;99.90
17918;DHT22;9084;50.956;3.106;2024-01-06T03:59:58;6.70;99.90
17918;DHT22;9084;50.956;3.106;2024-01-06T04:02:27;6.70;99.90
17918;DHT22;9084;50.956;3.106;2024-01-06T04:04:52;6.70;99.90
17918;DHT22;9084;50.956;3.106;2024-01-06T04:07:20;6.70;99.90
17918;DHT22;9084;50.956;3.106;2024-01-06T04:09:48;6.70;99.90
17918;DHT22;9084;50.956;3.106;2024-01-06T04:12:16;6.70;99.90
17918;DHT22;9084;50.956;3.106;2024-01-06T04:14:44;6.70;99.90
17918;DHT22;9084;50.956;3.106;2024-01-06T04:17:10;6.70;99.90
17918;DHT22;9084;50.956;3.106;2024-01-06T04:19:38;6.70;99.90
17918;DHT22;9084;50.956;3.106;2024-01-06T04:22:06;6.70;99.90
17918;DHT22;9084;50.956;3.106;2024-01-06T04:24:32;6.60;99.90
17918;DHT22;9084;50.956;3.106;2024-01-06T04:27:02;6.60;99.90
17918;DHT22;9084;50.956;3.106;2024-01-06T04:29:27;6.60;99.90
17918;DHT22;9084;50.956;3.106;2024-01-06T04:31:53;6.60;99.90
17918;DHT22;9084;50.956;3.106;2024-01-06T04:34:23;6.60;99.90
17918;DHT22;9084;50.956;3.106;2024-01-06T04:36:49;6.60;99.90
17918;DHT22;9084;50.956;3.106;2024-01-06T04:39:15;6.60;99.90
17918;DHT22;9084;50.956;3.106;2024-01-06T04:41:43;6.70;99.90
17918;DHT22;9084;50.956;3.106;2024-01-06T04:44:09;6.60;99.90
17918;DHT22;9084;50.956;3.106;2024-01-06T04:46:37;6.60;99.90
17918;DHT22;9084;50.956;3.106;2024-01-06T04:49:02;6.60;99.90
17918;DHT22;9084;50.956;3.106;2024-01-06T04:51:33;6.60;99.90
17918;DHT22;9084;50.956;3.106;2024-01-06T04:54:00;6.60;99.90
17918;DHT22;9084;50.956;3.106;2024-01-06T04:56:26;6.60;99.90
17918;DHT22;9084;50.956;3.106;2024-01-06T04:58:51;6.60;99.90
17918;DHT22;9084;50.956;3.106;2024-01-06T05:01:17;6.50;99.90
17918;DHT22;9084;50.956;3.106;2024-01-06T05:03:45;6.50;99.90
17918;DHT22;9084;50.956;3.106;2024-01-06T05:06:13;6.50;99.90
17918;DHT22;9084;50.956;3.106;2024-01-06T05:08:38;6.50;99.90
17918;DHT22;9084;50.956;3.106;2024-01-06T05:11:10;6.50;99.90
17918;DHT22;9084;50.956;3.106;2024-01-06T05:13:36;6.50;99.90
17918;DHT22;9084;50.956;3.106;2024-01-06T05:16:06;6.50;99.90
17918;DHT22;9084;50.956;3.106;2024-01-06T05:18:35;6.50;99.90
17918;DHT22;9084;50.956;3.106;2024-01-06T05:21:03;6.50;99.90
17918;DHT22;9084;50.956;3.106;2024-01-06T05:23:32;6.50;99.90
17918;DHT22;9084;50.956;3.106;2024-01-06T05:25:57;6.60;99.90
17918;DHT22;9084;50.956;3.106;2024-01-06T05:28:23;6.60;99.90
17918;DHT22;9084;50.956;3.106;2024-01-06T05:30:51;6.60;99.90
17918;DHT22;9084;50.956;3.106;2024-01-06T05:33:19;6.60;99.90
17918;DHT22;9084;50.956;3.106;2024-01-06T05:35:46;6.60;99.90
17918;DHT22;9084;50.956;3.106;2024-01-06T05:38:14;6.60;99.90
17918;DHT22;9084;50.956;3.106;2024-01-06T05:40:42;6.60;99.90
17918;DHT22;9084;50.956;3.106;2024-01-06T05:43:10;6.60;99.90
17918;DHT22;9084;50.956;3.106;2024-01-06T05:45:38;6.60;99.90
17918;DHT22;9084;50.956;3.106;2024-01-06T05:48:09;6.60;99.90
17918;DHT22;9084;50.956;3.106;2024-01-06T05:50:35;6.60;99.90
17918;DHT22;9084;50.956;3.106;2024-01-06T05:53:01;6.70;99.90
17918;DHT22;9084;50.956;3.106;2024-01-06T05:55:26;6.70;99.90
17918;DHT22;9084;50.956;3.106;2024-01-06T05:57:54;6.70;99.90
17918;DHT22;9084;50.956;3.106;2024-01-06T06:00:22;6.60;99.90
17918;DHT22;9084;50.956;3.106;2024-01-06T06:02:48;6.70;99.90
17918;DHT22;9084;50.956;3.106;2024-01-06T06:05:18;6.70;99.90
17918;DHT22;9084;50.956;3.106;2024-01-06T06:07:43;6.70;99.90
17918;DHT22;9084;50.956;3.106;2024-01-06T06:10:12;6.70;99.90
17918;DHT22;9084;50.956;3.106;2024-01-06T06:12:40;6.70;99.90
17918;DHT22;9084;50.956;3.106;2024-01-06T06:15:06;6.70;99.90
17918;DHT22;9084;50.956;3.106;2024-01-06T06:17:36;6.70;99.90
17918;DHT22;9084;50.956;3.106;2024-01-06T06:20:02;6.70;99.90
17918;DHT22;9084;50.956;3.106;2024-01-06T06:22:28;6.70;99.90
17918;DHT22;9084;50.956;3.106;2024-01-06T06:24:59;6.70;99.90
17918;DHT22;9084;50.956;3.106;2024-01-06T06:27:26;6.70;99.90
17918;DHT22;9084;50.956;3.106;2024-01-06T06:29:54;6.80;99.90
17918;DHT22;9084;50.956;3.106;2024-01-06T06:32:23;6.70;99.90
17918;DHT22;9084;50.956;3.106;2024-01-06T06:34:54;6.80;99.90
17918;DHT22;9084;50.956;3.106;2024-01-06T06:37:22;6.80;99.90
17918;DHT22;9084;50.956;3.106;2024-01-06T06:39:48;6.80;99.90
17918;DHT22;9084;50.956;3.106;2024-01-06T06:42:13;6.80;99.90
17918;DHT22;9084;50.956;3.106;2024-01-06T06:44:39;6.80;99.90
17918;DHT22;9084;50.956;3.106;2024-01-06T06:47:05;6.80;99.90
17918;DHT22;9084;50.956;3.106;2024-01-06T06:49:30;6.80;99.90
17918;DHT22;9084;50.956;3.106;2024-01-06T06:52:03;6.80;99.90
17918;DHT22;9084;50.956;3.106;2024-01-06T06:54:29;6.80;99.90
17918;DHT22;9084;50.956;3.106;2024-01-06T06:56:56;6.80;99.90
17918;DHT22;9084;50.956;3.106;2024-01-06T06:59:24;6.80;99.90
17918;DHT22;9084;50.956;3.106;2024-01-06T07:01:50;6.70;99.90
17918;DHT22;9084;50.956;3.106;2024-01-06T07:04:16;6.70;99.90
17918;DHT22;9084;50.956;3.106;2024-01-06T07:06:41;6.80;99.90
17918;DHT22;9084;50.956;3.106;2024-01-06T07:09:09;6.70;99.90
17918;DHT22;9084;50.956;3.106;2024-01-06T07:11:35;6.70;99.90
17918;DHT22;9084;50.956;3.106;2024-01-06T07:14:01;6.70;99.90
17918;DHT22;9084;50.956;3.106;2024-01-06T07:16:26;6.70;99.90
17918;DHT22;9084;50.956;3.106;2024-01-06T07:18:52;6.70;99.90
17918;DHT22;9084;50.956;3.106;2024-01-06T07:21:17;6.60;99.90
17918;DHT22;9084;50.956;3.106;2024-01-06T07:23:43;6.60;99.90
17918;DHT22;9084;50.956;3.106;2024-01-06T07:26:09;6.60;99.90
17918;DHT22;9084;50.956;3.106;2024-01-06T07:28:34;6.60;99.90
17918;DHT22;9084;50.956;3.106;2024-01-06T07:31:02;6.60;99.90
17918;DHT22;9084;50.956;3.106;2024-01-06T07:33:29;6.60;99.90
17918;DHT22;9084;50.956;3.106;2024-01-06T07:35:57;6.60;99.90
17918;DHT22;9084;50.956;3.106;2024-01-06T07:38:23;6.50;99.90
17918;DHT22;9084;50.956;3.106;2024-01-06T07:40:51;6.50;99.90
17918;DHT22;9084;50.956;3.106;2024-01-06T07:43:16;6.50;99.90
17918;DHT22;9084;50.956;3.106;2024-01-06T07:45:42;6.50;99.90
17918;DHT22;9084;50.956;3.106;2024-01-06T07:48:08;6.50;99.90
17918;DHT22;9084;50.956;3.106;2024-01-06T07:50:34;6.60;99.90
17918;DHT22;9084;50.956;3.106;2024-01-06T07:53:01;6.60;99.90
17918;DHT22;9084;50.956;3.106;2024-01-06T07:55:29;6.60;99.90
17918;DHT22;9084;50.956;3.106;2024-01-06T07:57:55;6.50;99.90
17918;DHT22;9084;50.956;3.106;2024-01-06T08:00:21;6.50;99.90
17918;DHT22;9084;50.956;3.106;2024-01-06T08:02:49;6.50;99.90
17918;DHT22;9084;50.956;3.106;2024-01-06T08:05:15;6.50;99.90
17918;DHT22;9084;50.956;3.106;2024-01-06T08:07:40;6.40;99.90
17918;DHT22;9084;50.956;3.106;2024-01-06T08:10:06;6.40;99.90
17918;DHT22;9084;50.956;3.106;2024-01-06T08:12:34;6.40;99.90
17918;DHT22;9084;50.956;3.106;2024-01-06T08:15:00;6.30;99.90
17918;DHT22;9084;50.956;3.106;2024-01-06T08:17:25;6.30;99.90
17918;DHT22;9084;50.956;3.106;2024-01-06T08:19:53;6.30;99.90
17918;DHT22;9084;50.956;3.106;2024-01-06T08:22:19;6.30;99.90
17918;DHT22;9084;50.956;3.106;2024-01-06T08:24:44;6.30;99.90
17918;DHT22;9084;50.956;3.106;2024-01-06T08:27:10;6.30;99.90
17918;DHT22;9084;50.956;3.106;2024-01-06T08:29:38;6.30;99.90
17918;DHT22;9084;50.956;3.106;2024-01-06T08:32:07;6.30;99.90
17918;DHT22;9084;50.956;3.106;2024-01-06T08:34:32;6.30;99.90
17918;DHT22;9084;50.956;3.106;2024-01-06T08:37:00;6.30;99.90
17918;DHT22;9084;50.956;3.106;2024-01-06T08:39:26;6.40;99.90
17918;DHT22;9084;50.956;3.106;2024-01-06T08:41:52;6.40;99.90
17918;DHT22;9084;50.956;3.106;2024-01-06T08:44:20;6.40;99.90
17918;DHT22;9084;50.956;3.106;2024-01-06T08:46:48;6.50;99.90
17918;DHT22;9084;50.956;3.106;2024-01-06T08:49:16;6.50;99.90
17918;DHT22;9084;50.956;3.106;2024-01-06T08:51:43;6.50;99.90
17918;DHT22;9084;50.956;3.106;2024-01-06T08:54:11;6.50;99.90
17918;DHT22;9084;50.956;3.106;2024-01-06T08:56:39;6.40;99.90
17918;DHT22;9084;50.956;3.106;2024-01-06T08:59:04;6.40;99.90
17918;DHT22;9084;50.956;3.106;2024-01-06T09:01:32;6.50;99.90
17918;DHT22;9084;50.956;3.106;2024-01-06T09:04:03;6.40;99.90
17918;DHT22;9084;50.956;3.106;2024-01-06T09:06:29;6.50;99.90
17918;DHT22;9084;50.956;3.106;2024-01-06T09:08:54;6.50;99.90
17918;DHT22;9084;50.956;3.106;2024-01-06T09:11:22;6.50;99.90
17918;DHT22;9084;50.956;3.106;2024-01-06T09:13:50;6.50;99.90
17918;DHT22;9084;50.956;3.106;2024-01-06T09:16:18;6.50;99.90
17918;DHT22;9084;50.956;3.106;2024-01-06T09:18:44;6.60;99.90
17918;DHT22;9084;50.956;3.106;2024-01-06T09:21:10;6.60;99.90
17918;DHT22;9084;50.956;3.106;2024-01-06T09:23:38;6.60;99.90
17918;DHT22;9084;50.956;3.106;2024-01-06T09:26:03;6.60;99.90
17918;DHT22;9084;50.956;3.106;2024-01-06T09:28:29;6.70;99.90
17918;DHT22;9084;50.956;3.106;2024-01-06T09:30:57;6.70;99.90
17918;DHT22;9084;50.956;3.106;2024-01-06T09:33:25;6.80;99.90
17918;DHT22;9084;50.956;3.106;2024-01-06T09:35:55;6.80;99.90
17918;DHT22;9084;50.956;3.106;2024-01-06T09:38:23;6.90;99.90
17918;DHT22;9084;50.956;3.106;2024-01-06T09:40:49;6.90;99.90
17918;DHT22;9084;50.956;3.106;2024-01-06T09:43:17;7.00;99.90
17918;DHT22;9084;50.956;3.106;2024-01-06T09:45:43;7.10;99.90
17918;DHT22;9084;50.956;3.106;2024-01-06T09:48:13;7.20;99.90
17918;DHT22;9084;50.956;3.106;2024-01-06T09:50:42;7.30;99.90
17918;DHT22;9084;50.956;3.106;2024-01-06T09:53:11;7.40;99.90
17918;DHT22;9084;50.956;3.106;2024-01-06T09:55:39;7.30;99.90
17918;DHT22;9084;50.956;3.106;2024-01-06T09:58:06;7.20;99.90
17918;DHT22;9084;50.956;3.106;2024-01-06T10:00:32;7.10;99.90
17918;DHT22;9084;50.956;3.106;2024-01-06T10:02:59;7.10;99.90
17918;DHT22;9084;50.956;3.106;2024-01-06T10:05:28;7.00;99.90
17918;DHT22;9084;50.956;3.106;2024-01-06T10:07:53;7.00;99.90
17918;DHT22;9084;50.956;3.106;2024-01-06T10:10:19;6.90;99.90
17918;DHT22;9084;50.956;3.106;2024-01-06T10:12:47;6.90;99.90
17918;DHT22;9084;50.956;3.106;2024-01-06T10:15:13;6.90;99.90
17918;DHT22;9084;50.956;3.106;2024-01-06T10:17:39;7.00;99.90
17918;DHT22;9084;50.956;3.106;2024-01-06T10:20:10;6.90;99.90
17918;DHT22;9084;50.956;3.106;2024-01-06T10:22:42;7.00;99.90
17918;DHT22;9084;50.956;3.106;2024-01-06T10:25:10;6.90;99.90
17918;DHT22;9084;50.956;3.106;2024-01-06T10:27:39;6.90;99.90
17918;DHT22;9084;50.956;3.106;2024-01-06T10:30:11;6.90;99.90
17918;DHT22;9084;50.956;3.106;2024-01-06T10:32:39;6.90;99.90
17918;DHT22;9084;50.956;3.106;2024-01-06T10:35:05;6.90;99.90
17918;DHT22;9084;50.956;3.106;2024-01-06T10:37:32;6.90;99.90
17918;DHT22;9084;50.956;3.106;2024-01-06T10:40:10;7.00;99.90
17918;DHT22;9084;50.956;3.106;2024-01-06T10:42:42;7.10;99.90
17918;DHT22;9084;50.956;3.106;2024-01-06T10:45:10;7.20;99.90
17918;DHT22;9084;50.956;3.106;2024-01-06T10:47:37;7.20;99.90
17918;DHT22;9084;50.956;3.106;2024-01-06T10:50:03;7.20;99.90
17918;DHT22;9084;50.956;3.106;2024-01-06T10:52:32;7.20;99.90
17918;DHT22;9084;50.956;3.106;2024-01-06T10:54:58;7.20;99.90
17918;DHT22;9084;50.956;3.106;2024-01-06T10:57:24;7.20;99.90
17918;DHT22;9084;50.956;3.106;2024-01-06T10:59:52;7.20;99.90
17918;DHT22;9084;50.956;3.106;2024-01-06T11:02:19;7.20;99.90
17918;DHT22;9084;50.956;3.106;2024-01-06T11:04:48;7.10;99.90
17918;DHT22;9084;50.956;3.106;2024-01-06T11:07:17;7.10;99.90
17918;DHT22;9084;50.956;3.106;2024-01-06T11:09:52;7.00;99.90
17918;DHT22;9084;50.956;3.106;2024-01-06T11:12:22;7.00;99.90
17918;DHT22;9084;50.956;3.106;2024-01-06T11:14:47;6.90;99.90
17918;DHT22;9084;50.956;3.106;2024-01-06T11:17:13;6.90;99.90
17918;DHT22;9084;50.956;3.106;2024-01-06T11:20:05;6.90;99.90
17918;DHT22;9084;50.956;3.106;2024-01-06T11:22:34;7.00;99.90
17918;DHT22;9084;50.956;3.106;2024-01-06T11:25:06;7.20;99.90
17918;DHT22;9084;50.956;3.106;2024-01-06T11:27:33;7.30;99.90
17918;DHT22;9084;50.956;3.106;2024-01-06T11:30:02;7.40;99.90
17918;DHT22;9084;50.956;3.106;2024-01-06T11:32:35;7.30;99.90
17918;DHT22;9084;50.956;3.106;2024-01-06T11:35:10;7.30;99.90
17918;DHT22;9084;50.956;3.106;2024-01-06T11:42:38;7.20;99.90
17918;DHT22;9084;50.956;3.106;2024-01-06T11:45:08;7.20;99.90
17918;DHT22;9084;50.956;3.106;2024-01-06T11:47:39;7.20;99.90
17918;DHT22;9084;50.956;3.106;2024-01-06T11:50:07;7.20;99.90
17918;DHT22;9084;50.956;3.106;2024-01-06T11:52:33;7.20;99.90
17918;DHT22;9084;50.956;3.106;2024-01-06T11:55:01;7.10;99.90
17918;DHT22;9084;50.956;3.106;2024-01-06T11:57:28;7.20;99.90
17918;DHT22;9084;50.956;3.106;2024-01-06T11:59:54;7.20;99.90
17918;DHT22;9084;50.956;3.106;2024-01-06T12:02:20;7.20;99.90
17918;DHT22;9084;50.956;3.106;2024-01-06T12:04:54;7.30;99.90
17918;DHT22;9084;50.956;3.106;2024-01-06T12:07:21;7.30;99.90
17918;DHT22;9084;50.956;3.106;2024-01-06T12:09:48;7.40;99.90
17918;DHT22;9084;50.956;3.106;2024-01-06T12:12:17;7.40;99.90
17918;DHT22;9084;50.956;3.106;2024-01-06T12:14:48;7.40;99.90
17918;DHT22;9084;50.956;3.106;2024-01-06T12:17:14;7.40;99.90
17918;DHT22;9084;50.956;3.106;2024-01-06T12:19:40;7.40;99.90
17918;DHT22;9084;50.956;3.106;2024-01-06T12:22:15;7.40;99.90
17918;DHT22;9084;50.956;3.106;2024-01-06T12:24:41;7.40;99.90
17918;DHT22;9084;50.956;3.106;2024-01-06T12:27:08;7.30;99.90
17918;DHT22;9084;50.956;3.106;2024-01-06T12:29:41;7.30;99.90
17918;DHT22;9084;50.956;3.106;2024-01-06T12:32:12;7.30;99.90
17918;DHT22;9084;50.956;3.106;2024-01-06T12:34:41;7.30;99.90
17918;DHT22;9084;50.956;3.106;2024-01-06T12:37:09;7.30;99.90
17918;DHT22;9084;50.956;3.106;2024-01-06T12:39:37;7.20;99.90
17918;DHT22;9084;50.956;3.106;2024-01-06T12:42:05;7.20;99.90
17918;DHT22;9084;50.956;3.106;2024-01-06T12:44:34;7.20;99.90
17918;DHT22;9084;50.956;3.106;2024-01-06T12:47:02;7.30;99.90
17918;DHT22;9084;50.956;3.106;2024-01-06T12:49:28;7.50;99.90
17918;DHT22;9084;50.956;3.106;2024-01-06T12:51:54;7.50;99.90
17918;DHT22;9084;50.956;3.106;2024-01-06T12:54:20;7.50;99.90
17918;DHT22;9084;50.956;3.106;2024-01-06T12:56:50;7.50;99.90
17918;DHT22;9084;50.956;3.106;2024-01-06T12:59:16;7.50;99.90
17918;DHT22;9084;50.956;3.106;2024-01-06T13:01:42;7.50;99.90
17918;DHT22;9084;50.956;3.106;2024-01-06T13:04:10;7.50;99.90
17918;DHT22;9084;50.956;3.106;2024-01-06T13:06:36;7.40;99.90
17918;DHT22;9084;50.956;3.106;2024-01-06T13:09:01;7.30;99.90
17918;DHT22;9084;50.956;3.106;2024-01-06T13:11:34;7.20;99.90
17918;DHT22;9084;50.956;3.106;2024-01-06T13:14:05;7.20;99.90
17918;DHT22;9084;50.956;3.106;2024-01-06T13:16:33;7.10;99.90
17918;DHT22;9084;50.956;3.106;2024-01-06T13:19:02;7.20;99.90
17918;DHT22;9084;50.956;3.106;2024-01-06T13:21:28;7.30;99.90
17918;DHT22;9084;50.956;3.106;2024-01-06T13:23:56;7.30;99.90
17918;DHT22;9084;50.956;3.106;2024-01-06T13:26:32;7.30;99.90
17918;DHT22;9084;50.956;3.106;2024-01-06T13:29:01;7.30;99.90
17918;DHT22;9084;50.956;3.106;2024-01-06T13:31:30;7.20;99.90
17918;DHT22;9084;50.956;3.106;2024-01-06T13:33:59;7.20;99.90
17918;DHT22;9084;50.956;3.106;2024-01-06T13:36:24;7.10;99.90
17918;DHT22;9084;50.956;3.106;2024-01-06T13:38:53;7.10;99.90
17918;DHT22;9084;50.956;3.106;2024-01-06T13:41:19;7.20;99.90
17918;DHT22;9084;50.956;3.106;2024-01-06T13:43:47;7.20;99.90
17918;DHT22;9084;50.956;3.106;2024-01-06T13:46:15;7.20;99.90
17918;DHT22;9084;50.956;3.106;2024-01-06T13:48:45;7.20;99.90
17918;DHT22;9084;50.956;3.106;2024-01-06T13:51:13;7.20;99.90
17918;DHT22;9084;50.956;3.106;2024-01-06T13:53:42;7.20;99.90
17918;DHT22;9084;50.956;3.106;2024-01-06T13:56:08;7.20;99.90
17918;DHT22;9084;50.956;3.106;2024-01-06T13:58:36;7.20;99.90
17918;DHT22;9084;50.956;3.106;2024-01-06T14:01:02;7.10;99.90
17918;DHT22;9084;50.956;3.106;2024-01-06T14:03:30;7.10;99.90
17918;DHT22;9084;50.956;3.106;2024-01-06T14:05:58;6.90;99.90
17918;DHT22;9084;50.956;3.106;2024-01-06T14:08:24;6.90;99.90
17918;DHT22;9084;50.956;3.106;2024-01-06T14:10:50;6.80;99.90
17918;DHT22;9084;50.956;3.106;2024-01-06T14:13:18;6.70;99.90
17918;DHT22;9084;50.956;3.106;2024-01-06T14:15:44;6.70;99.90
17918;DHT22;9084;50.956;3.106;2024-01-06T14:18:09;6.70;99.90
17918;DHT22;9084;50.956;3.106;2024-01-06T14:20:36;6.60;99.90
17918;DHT22;9084;50.956;3.106;2024-01-06T14:23:04;6.60;99.90
17918;DHT22;9084;50.956;3.106;2024-01-06T14:25:35;6.60;99.90
17918;DHT22;9084;50.956;3.106;2024-01-06T14:28:00;6.60;99.90
17918;DHT22;9084;50.956;3.106;2024-01-06T14:30:29;6.60;99.90
17918;DHT22;9084;50.956;3.106;2024-01-06T14:32:54;6.60;99.90
17918;DHT22;9084;50.956;3.106;2024-01-06T14:35:20;6.70;99.90
17918;DHT22;9084;50.956;3.106;2024-01-06T14:37:45;6.70;99.90
17918;DHT22;9084;50.956;3.106;2024-01-06T14:40:12;6.70;99.90
17918;DHT22;9084;50.956;3.106;2024-01-06T14:42:38;6.70;99.90
17918;DHT22;9084;50.956;3.106;2024-01-06T14:45:07;6.70;99.90
17918;DHT22;9084;50.956;3.106;2024-01-06T14:47:33;6.70;99.90
17918;DHT22;9084;50.956;3.106;2024-01-06T14:50:01;6.70;99.90
17918;DHT22;9084;50.956;3.106;2024-01-06T14:52:29;6.70;99.90
17918;DHT22;9084;50.956;3.106;2024-01-06T14:54:57;6.60;99.90
17918;DHT22;9084;50.956;3.106;2024-01-06T14:57:24;6.50;99.90
17918;DHT22;9084;50.956;3.106;2024-01-06T14:59:49;6.50;99.90
17918;DHT22;9084;50.956;3.106;2024-01-06T15:02:17;6.40;99.90
17918;DHT22;9084;50.956;3.106;2024-01-06T15:04:43;6.40;99.90
17918;DHT22;9084;50.956;3.106;2024-01-06T15:07:08;6.40;99.90
17918;DHT22;9084;50.956;3.106;2024-01-06T15:09:38;6.40;99.90
17918;DHT22;9084;50.956;3.106;2024-01-06T15:12:05;6.40;99.90
17918;DHT22;9084;50.956;3.106;2024-01-06T15:14:31;6.30;99.90
17918;DHT22;9084;50.956;3.106;2024-01-06T15:16:59;6.30;99.90
17918;DHT22;9084;50.956;3.106;2024-01-06T15:19:25;6.30;99.90
17918;DHT22;9084;50.956;3.106;2024-01-06T15:21:55;6.30;99.90
17918;DHT22;9084;50.956;3.106;2024-01-06T15:24:23;6.30;99.90
17918;DHT22;9084;50.956;3.106;2024-01-06T15:26:54;6.30;99.90
17918;DHT22;9084;50.956;3.106;2024-01-06T15:29:22;6.20;99.90
17918;DHT22;9084;50.956;3.106;2024-01-06T15:31:48;6.20;99.90
17918;DHT22;9084;50.956;3.106;2024-01-06T15:34:14;6.20;99.90
17918;DHT22;9084;50.956;3.106;2024-01-06T15:36:41;6.20;99.90
17918;DHT22;9084;50.956;3.106;2024-01-06T15:39:10;6.10;99.90
17918;DHT22;9084;50.956;3.106;2024-01-06T15:41:36;6.00;99.90
17918;DHT22;9084;50.956;3.106;2024-01-06T15:44:02;6.00;99.90
17918;DHT22;9084;50.956;3.106;2024-01-06T15:46:32;5.90;99.90
17918;DHT22;9084;50.956;3.106;2024-01-06T15:49:00;5.90;99.90
17918;DHT22;9084;50.956;3.106;2024-01-06T15:51:28;6.00;99.90
17918;DHT22;9084;50.956;3.106;2024-01-06T15:53:56;5.90;99.90
17918;DHT22;9084;50.956;3.106;2024-01-06T15:56:24;5.90;99.90
17918;DHT22;9084;50.956;3.106;2024-01-06T15:58:50;6.00;99.90
17918;DHT22;9084;50.956;3.106;2024-01-06T16:01:20;6.00;99.90
17918;DHT22;9084;50.956;3.106;2024-01-06T16:03:46;6.00;99.90
17918;DHT22;9084;50.956;3.106;2024-01-06T16:06:13;5.90;99.90